sensor_id;sensor_type;location;lat;lon;timestamp;P1;durP1;ratioP1;P2;durP2;ratioP2
6852;SDS011;3465;42.144;24.722;2023-04-06T00:01:24;10.67;;;7.13;;
6852;SDS011;3465;42.144;24.722;2023-04-06T00:03:50;11.20;;;7.70;;
6852;SDS011;3465;42.144;24.722;2023-04-06T00:06:15;14.07;;;8.10;;
6852;SDS011;3465;42.144;24.722;2023-04-06T00:08:41;12.60;;;8.60;;
6852;SDS011;3465;42.144;24.722;2023-04-06T00:11:07;12.03;;;8.00;;
6852;SDS011;3465;42.144;24.722;2023-04-06T00:13:32;12.10;;;7.83;;
6852;SDS011;3465;42.144;24.722;2023-04-06T00:15:57;10.73;;;7.30;;
6852;SDS011;3465;42.144;24.722;2023-04-06T00:18:23;17.47;;;9.27;;
6852;SDS011;3465;42.144;24.722;2023-04-06T00:20:49;11.47;;;7.40;;
6852;SDS011;3465;42.144;24.722;2023-04-06T00:23:15;13.13;;;8.03;;
6852;SDS011;3465;42.144;24.722;2023-04-06T00:25:41;16.00;;;8.80;;
6852;SDS011;3465;42.144;24.722;2023-04-06T00:28:06;20.77;;;10.77;;
6852;SDS011;3465;42.144;24.722;2023-04-06T00:30:32;16.47;;;9.47;;
6852;SDS011;3465;42.144;24.722;2023-04-06T00:32:57;19.67;;;9.80;;
6852;SDS011;3465;42.144;24.722;2023-04-06T00:35:23;15.97;;;8.93;;
6852;SDS011;3465;42.144;24.722;2023-04-06T00:37:48;37.73;;;14.60;;
6852;SDS011;3465;42.144;24.722;2023-04-06T00:40:13;17.23;;;9.83;;
6852;SDS011;3465;42.144;24.722;2023-04-06T00:42:40;13.90;;;8.70;;
6852;SDS011;3465;42.144;24.722;2023-04-06T00:45:06;16.87;;;9.30;;
6852;SDS011;3465;42.144;24.722;2023-04-06T00:47:32;18.60;;;8.83;;
6852;SDS011;3465;42.144;24.722;2023-04-06T00:49:58;18.23;;;9.33;;
6852;SDS011;3465;42.144;24.722;2023-04-06T00:52:23;15.53;;;8.70;;
6852;SDS011;3465;42.144;24.722;2023-04-06T00:54:49;14.37;;;8.13;;
6852;SDS011;3465;42.144;24.722;2023-04-06T00:57:15;15.47;;;9.03;;
6852;SDS011;3465;42.144;24.722;2023-04-06T00:59:41;15.77;;;9.10;;
6852;SDS011;3465;42.144;24.722;2023-04-06T01:02:07;16.57;;;9.37;;
6852;SDS011;3465;42.144;24.722;2023-04-06T01:04:33;17.13;;;10.23;;
6852;SDS011;3465;42.144;24.722;2023-04-06T01:06:59;20.37;;;9.20;;
6852;SDS011;3465;42.144;24.722;2023-04-06T01:09:26;17.17;;;9.13;;
6852;SDS011;3465;42.144;24.722;2023-04-06T01:11:53;14.43;;;8.53;;
6852;SDS011;3465;42.144;24.722;2023-04-06T01:14:18;16.30;;;8.90;;
6852;SDS011;3465;42.144;24.722;2023-04-06T01:16:45;19.93;;;10.60;;
6852;SDS011;3465;42.144;24.722;2023-04-06T01:19:11;19.30;;;8.83;;
6852;SDS011;3465;42.144;24.722;2023-04-06T01:21:38;17.90;;;9.43;;
6852;SDS011;3465;42.144;24.722;2023-04-06T01:24:05;13.97;;;8.30;;
6852;SDS011;3465;42.144;24.722;2023-04-06T01:26:31;25.93;;;10.70;;
6852;SDS011;3465;42.144;24.722;2023-04-06T01:28:57;19.00;;;9.73;;
6852;SDS011;3465;42.144;24.722;2023-04-06T01:31:23;24.37;;;10.40;;
6852;SDS011;3465;42.144;24.722;2023-04-06T01:33:50;22.10;;;9.77;;
6852;SDS011;3465;42.144;24.722;2023-04-06T01:36:15;22.23;;;9.90;;
6852;SDS011;3465;42.144;24.722;2023-04-06T01:38:41;37.70;;;13.60;;
6852;SDS011;3465;42.144;24.722;2023-04-06T01:41:08;45.30;;;15.10;;
6852;SDS011;3465;42.144;24.722;2023-04-06T01:43:34;18.53;;;9.73;;
6852;SDS011;3465;42.144;24.722;2023-04-06T01:45:59;21.57;;;10.07;;
6852;SDS011;3465;42.144;24.722;2023-04-06T01:48:26;23.57;;;10.00;;
6852;SDS011;3465;42.144;24.722;2023-04-06T01:50:52;25.10;;;12.77;;
6852;SDS011;3465;42.144;24.722;2023-04-06T01:53:17;15.40;;;9.00;;
6852;SDS011;3465;42.144;24.722;2023-04-06T01:55:43;11.37;;;7.30;;
6852;SDS011;3465;42.144;24.722;2023-04-06T01:58:10;12.63;;;8.17;;
6852;SDS011;3465;42.144;24.722;2023-04-06T02:00:35;12.33;;;7.70;;
6852;SDS011;3465;42.144;24.722;2023-04-06T02:03:01;11.27;;;7.60;;
6852;SDS011;3465;42.144;24.722;2023-04-06T02:05:26;10.70;;;7.40;;
6852;SDS011;3465;42.144;24.722;2023-04-06T02:07:53;11.30;;;7.27;;
6852;SDS011;3465;42.144;24.722;2023-04-06T02:10:18;11.40;;;7.07;;
6852;SDS011;3465;42.144;24.722;2023-04-06T02:12:43;11.87;;;7.13;;
6852;SDS011;3465;42.144;24.722;2023-04-06T02:15:10;11.23;;;7.23;;
6852;SDS011;3465;42.144;24.722;2023-04-06T02:17:38;11.80;;;7.33;;
6852;SDS011;3465;42.144;24.722;2023-04-06T02:20:03;13.53;;;8.00;;
6852;SDS011;3465;42.144;24.722;2023-04-06T02:22:29;13.77;;;7.77;;
6852;SDS011;3465;42.144;24.722;2023-04-06T02:24:55;11.93;;;7.60;;
6852;SDS011;3465;42.144;24.722;2023-04-06T02:27:20;11.97;;;7.57;;
6852;SDS011;3465;42.144;24.722;2023-04-06T02:29:45;13.67;;;8.10;;
6852;SDS011;3465;42.144;24.722;2023-04-06T02:32:11;13.00;;;7.60;;
6852;SDS011;3465;42.144;24.722;2023-04-06T02:34:36;13.03;;;8.20;;
6852;SDS011;3465;42.144;24.722;2023-04-06T02:37:02;13.07;;;7.63;;
6852;SDS011;3465;42.144;24.722;2023-04-06T02:39:27;12.33;;;8.03;;
6852;SDS011;3465;42.144;24.722;2023-04-06T02:41:52;13.07;;;7.87;;
6852;SDS011;3465;42.144;24.722;2023-04-06T02:44:18;12.37;;;8.17;;
6852;SDS011;3465;42.144;24.722;2023-04-06T02:46:44;13.00;;;8.07;;
6852;SDS011;3465;42.144;24.722;2023-04-06T02:49:10;15.07;;;8.67;;
6852;SDS011;3465;42.144;24.722;2023-04-06T02:51:35;12.20;;;7.43;;
6852;SDS011;3465;42.144;24.722;2023-04-06T02:54:00;14.93;;;9.13;;
6852;SDS011;3465;42.144;24.722;2023-04-06T02:56:26;13.77;;;8.00;;
6852;SDS011;3465;42.144;24.722;2023-04-06T02:58:51;13.47;;;8.27;;
6852;SDS011;3465;42.144;24.722;2023-04-06T03:01:17;16.70;;;8.90;;
6852;SDS011;3465;42.144;24.722;2023-04-06T03:03:42;15.07;;;8.73;;
6852;SDS011;3465;42.144;24.722;2023-04-06T03:06:07;14.40;;;9.10;;
6852;SDS011;3465;42.144;24.722;2023-04-06T03:08:33;14.87;;;8.87;;
6852;SDS011;3465;42.144;24.722;2023-04-06T03:10:58;14.43;;;8.10;;
6852;SDS011;3465;42.144;24.722;2023-04-06T03:13:24;15.23;;;9.13;;
6852;SDS011;3465;42.144;24.722;2023-04-06T03:15:49;14.97;;;9.03;;
6852;SDS011;3465;42.144;24.722;2023-04-06T03:18:17;14.67;;;9.20;;
6852;SDS011;3465;42.144;24.722;2023-04-06T03:20:46;16.40;;;8.97;;
6852;SDS011;3465;42.144;24.722;2023-04-06T03:23:12;16.97;;;9.03;;
6852;SDS011;3465;42.144;24.722;2023-04-06T03:25:37;16.23;;;8.90;;
6852;SDS011;3465;42.144;24.722;2023-04-06T03:28:04;17.03;;;9.87;;
6852;SDS011;3465;42.144;24.722;2023-04-06T03:30:30;16.13;;;9.00;;
6852;SDS011;3465;42.144;24.722;2023-04-06T03:32:55;16.83;;;9.13;;
6852;SDS011;3465;42.144;24.722;2023-04-06T03:35:24;17.37;;;9.53;;
6852;SDS011;3465;42.144;24.722;2023-04-06T03:37:49;16.70;;;8.97;;
6852;SDS011;3465;42.144;24.722;2023-04-06T03:40:15;16.17;;;9.83;;
6852;SDS011;3465;42.144;24.722;2023-04-06T03:42:40;19.23;;;9.80;;
6852;SDS011;3465;42.144;24.722;2023-04-06T03:45:06;14.90;;;8.50;;
6852;SDS011;3465;42.144;24.722;2023-04-06T03:47:32;20.63;;;9.63;;
6852;SDS011;3465;42.144;24.722;2023-04-06T03:49:57;15.00;;;9.00;;
6852;SDS011;3465;42.144;24.722;2023-04-06T03:52:23;14.60;;;8.77;;
6852;SDS011;3465;42.144;24.722;2023-04-06T03:54:48;16.83;;;9.30;;
6852;SDS011;3465;42.144;24.722;2023-04-06T03:57:14;17.67;;;8.93;;
6852;SDS011;3465;42.144;24.722;2023-04-06T03:59:40;13.93;;;8.50;;
6852;SDS011;3465;42.144;24.722;2023-04-06T04:02:05;16.97;;;9.43;;
6852;SDS011;3465;42.144;24.722;2023-04-06T04:04:31;18.37;;;8.90;;
6852;SDS011;3465;42.144;24.722;2023-04-06T04:06:56;16.53;;;9.13;;
6852;SDS011;3465;42.144;24.722;2023-04-06T04:09:21;14.57;;;8.97;;
6852;SDS011;3465;42.144;24.722;2023-04-06T04:11:47;13.83;;;8.00;;
6852;SDS011;3465;42.144;24.722;2023-04-06T04:14:12;18.10;;;9.40;;
6852;SDS011;3465;42.144;24.722;2023-04-06T04:16:38;14.60;;;8.03;;
6852;SDS011;3465;42.144;24.722;2023-04-06T04:19:04;19.13;;;9.87;;
6852;SDS011;3465;42.144;24.722;2023-04-06T04:21:30;19.60;;;8.67;;
6852;SDS011;3465;42.144;24.722;2023-04-06T04:23:56;15.53;;;8.07;;
6852;SDS011;3465;42.144;24.722;2023-04-06T04:26:21;13.03;;;7.97;;
6852;SDS011;3465;42.144;24.722;2023-04-06T04:28:47;22.23;;;9.80;;
6852;SDS011;3465;42.144;24.722;2023-04-06T04:31:12;15.03;;;8.90;;
6852;SDS011;3465;42.144;24.722;2023-04-06T04:33:38;18.40;;;8.43;;
6852;SDS011;3465;42.144;24.722;2023-04-06T04:36:03;16.53;;;8.03;;
6852;SDS011;3465;42.144;24.722;2023-04-06T04:38:29;13.37;;;7.90;;
6852;SDS011;3465;42.144;24.722;2023-04-06T04:40:54;13.80;;;8.10;;
6852;SDS011;3465;42.144;24.722;2023-04-06T04:43:20;16.10;;;7.73;;
6852;SDS011;3465;42.144;24.722;2023-04-06T04:45:45;18.07;;;8.17;;
6852;SDS011;3465;42.144;24.722;2023-04-06T04:48:10;12.77;;;7.60;;
6852;SDS011;3465;42.144;24.722;2023-04-06T04:50:36;16.63;;;8.00;;
6852;SDS011;3465;42.144;24.722;2023-04-06T04:53:01;13.70;;;8.07;;
6852;SDS011;3465;42.144;24.722;2023-04-06T04:55:27;12.10;;;7.30;;
6852;SDS011;3465;42.144;24.722;2023-04-06T04:57:54;13.43;;;7.67;;
6852;SDS011;3465;42.144;24.722;2023-04-06T05:00:19;12.53;;;7.60;;
6852;SDS011;3465;42.144;24.722;2023-04-06T05:02:45;13.23;;;7.80;;
6852;SDS011;3465;42.144;24.722;2023-04-06T05:05:11;11.73;;;6.83;;
6852;SDS011;3465;42.144;24.722;2023-04-06T05:07:36;17.07;;;7.57;;
6852;SDS011;3465;42.144;24.722;2023-04-06T05:10:02;14.17;;;7.73;;
6852;SDS011;3465;42.144;24.722;2023-04-06T05:12:27;14.10;;;7.93;;
6852;SDS011;3465;42.144;24.722;2023-04-06T05:14:53;12.93;;;6.90;;
6852;SDS011;3465;42.144;24.722;2023-04-06T05:17:19;12.73;;;7.23;;
6852;SDS011;3465;42.144;24.722;2023-04-06T05:19:44;12.97;;;7.37;;
6852;SDS011;3465;42.144;24.722;2023-04-06T05:22:10;13.27;;;7.47;;
6852;SDS011;3465;42.144;24.722;2023-04-06T05:24:36;14.43;;;7.43;;
6852;SDS011;3465;42.144;24.722;2023-04-06T05:27:01;10.87;;;6.70;;
6852;SDS011;3465;42.144;24.722;2023-04-06T05:29:27;11.50;;;7.20;;
6852;SDS011;3465;42.144;24.722;2023-04-06T05:31:52;11.53;;;7.00;;
6852;SDS011;3465;42.144;24.722;2023-04-06T05:34:17;12.67;;;8.07;;
6852;SDS011;3465;42.144;24.722;2023-04-06T05:36:43;11.00;;;7.57;;
6852;SDS011;3465;42.144;24.722;2023-04-06T05:39:08;13.37;;;8.00;;
6852;SDS011;3465;42.144;24.722;2023-04-06T05:41:34;10.83;;;7.07;;
6852;SDS011;3465;42.144;24.722;2023-04-06T05:44:00;12.57;;;7.20;;
6852;SDS011;3465;42.144;24.722;2023-04-06T05:46:25;18.47;;;7.87;;
6852;SDS011;3465;42.144;24.722;2023-04-06T05:48:51;11.37;;;7.20;;
6852;SDS011;3465;42.144;24.722;2023-04-06T05:51:16;11.63;;;7.40;;
6852;SDS011;3465;42.144;24.722;2023-04-06T05:53:41;9.73;;;7.10;;
6852;SDS011;3465;42.144;24.722;2023-04-06T05:56:07;10.30;;;6.77;;
6852;SDS011;3465;42.144;24.722;2023-04-06T05:58:33;15.67;;;6.77;;
6852;SDS011;3465;42.144;24.722;2023-04-06T06:01:01;13.07;;;6.93;;
6852;SDS011;3465;42.144;24.722;2023-04-06T06:03:28;10.30;;;6.20;;
6852;SDS011;3465;42.144;24.722;2023-04-06T06:05:59;8.13;;;5.97;;
6852;SDS011;3465;42.144;24.722;2023-04-06T06:08:28;7.70;;;5.50;;
6852;SDS011;3465;42.144;24.722;2023-04-06T06:10:54;7.93;;;5.43;;
6852;SDS011;3465;42.144;24.722;2023-04-06T06:13:20;7.53;;;5.40;;
6852;SDS011;3465;42.144;24.722;2023-04-06T06:15:47;10.13;;;5.53;;
6852;SDS011;3465;42.144;24.722;2023-04-06T06:18:13;8.83;;;5.60;;
6852;SDS011;3465;42.144;24.722;2023-04-06T06:20:39;9.10;;;5.33;;
6852;SDS011;3465;42.144;24.722;2023-04-06T06:23:04;9.03;;;4.87;;
6852;SDS011;3465;42.144;24.722;2023-04-06T06:25:30;7.13;;;5.30;;
6852;SDS011;3465;42.144;24.722;2023-04-06T06:27:58;7.60;;;4.83;;
6852;SDS011;3465;42.144;24.722;2023-04-06T06:30:24;7.60;;;4.90;;
6852;SDS011;3465;42.144;24.722;2023-04-06T06:32:50;7.27;;;5.13;;
6852;SDS011;3465;42.144;24.722;2023-04-06T06:35:16;6.43;;;5.07;;
6852;SDS011;3465;42.144;24.722;2023-04-06T06:37:41;7.07;;;4.80;;
6852;SDS011;3465;42.144;24.722;2023-04-06T06:40:08;8.60;;;5.17;;
6852;SDS011;3465;42.144;24.722;2023-04-06T06:42:34;6.57;;;5.10;;
6852;SDS011;3465;42.144;24.722;2023-04-06T06:44:59;6.87;;;4.97;;
6852;SDS011;3465;42.144;24.722;2023-04-06T06:47:25;7.13;;;4.43;;
6852;SDS011;3465;42.144;24.722;2023-04-06T06:49:51;6.87;;;4.67;;
6852;SDS011;3465;42.144;24.722;2023-04-06T06:52:16;6.73;;;4.60;;
6852;SDS011;3465;42.144;24.722;2023-04-06T06:54:42;7.57;;;5.23;;
6852;SDS011;3465;42.144;24.722;2023-04-06T06:57:08;9.13;;;6.23;;
6852;SDS011;3465;42.144;24.722;2023-04-06T06:59:34;7.33;;;5.40;;
6852;SDS011;3465;42.144;24.722;2023-04-06T07:01:59;8.70;;;5.33;;
6852;SDS011;3465;42.144;24.722;2023-04-06T07:04:24;10.27;;;6.80;;
6852;SDS011;3465;42.144;24.722;2023-04-06T07:06:50;7.17;;;5.80;;
6852;SDS011;3465;42.144;24.722;2023-04-06T07:09:16;7.30;;;5.20;;
6852;SDS011;3465;42.144;24.722;2023-04-06T07:11:41;6.90;;;4.70;;
6852;SDS011;3465;42.144;24.722;2023-04-06T07:14:07;7.03;;;5.07;;
6852;SDS011;3465;42.144;24.722;2023-04-06T07:16:32;9.27;;;5.43;;
6852;SDS011;3465;42.144;24.722;2023-04-06T07:18:58;7.82;;;5.07;;
6852;SDS011;3465;42.144;24.722;2023-04-06T07:21:23;13.98;;;4.97;;
6852;SDS011;3465;42.144;24.722;2023-04-06T07:23:48;5.95;;;4.70;;
6852;SDS011;3465;42.144;24.722;2023-04-06T07:26:15;7.05;;;4.82;;
6852;SDS011;3465;42.144;24.722;2023-04-06T07:28:41;6.05;;;4.68;;
6852;SDS011;3465;42.144;24.722;2023-04-06T07:31:06;6.38;;;4.60;;
6852;SDS011;3465;42.144;24.722;2023-04-06T07:33:32;8.63;;;5.35;;
6852;SDS011;3465;42.144;24.722;2023-04-06T07:35:58;6.57;;;4.63;;
6852;SDS011;3465;42.144;24.722;2023-04-06T07:38:24;7.55;;;5.40;;
6852;SDS011;3465;42.144;24.722;2023-04-06T07:40:49;6.65;;;4.55;;
6852;SDS011;3465;42.144;24.722;2023-04-06T07:43:15;7.70;;;4.55;;
6852;SDS011;3465;42.144;24.722;2023-04-06T07:45:41;5.93;;;4.50;;
6852;SDS011;3465;42.144;24.722;2023-04-06T07:48:06;7.50;;;4.90;;
6852;SDS011;3465;42.144;24.722;2023-04-06T07:50:32;5.68;;;4.47;;
6852;SDS011;3465;42.144;24.722;2023-04-06T07:52:57;5.50;;;4.22;;
6852;SDS011;3465;42.144;24.722;2023-04-06T07:55:23;8.52;;;4.82;;
6852;SDS011;3465;42.144;24.722;2023-04-06T07:57:48;8.20;;;4.82;;
6852;SDS011;3465;42.144;24.722;2023-04-06T08:00:14;5.28;;;4.20;;
6852;SDS011;3465;42.144;24.722;2023-04-06T08:02:40;7.20;;;4.60;;
6852;SDS011;3465;42.144;24.722;2023-04-06T08:05:05;6.00;;;5.20;;
6852;SDS011;3465;42.144;24.722;2023-04-06T08:07:32;4.95;;;4.32;;
6852;SDS011;3465;42.144;24.722;2023-04-06T08:09:57;5.80;;;4.20;;
6852;SDS011;3465;42.144;24.722;2023-04-06T08:12:22;5.30;;;4.47;;
6852;SDS011;3465;42.144;24.722;2023-04-06T08:14:48;9.02;;;5.30;;
6852;SDS011;3465;42.144;24.722;2023-04-06T08:17:13;6.68;;;4.22;;
6852;SDS011;3465;42.144;24.722;2023-04-06T08:19:39;6.32;;;5.07;;
6852;SDS011;3465;42.144;24.722;2023-04-06T08:22:09;5.88;;;5.20;;
6852;SDS011;3465;42.144;24.722;2023-04-06T08:24:35;5.63;;;4.68;;
6852;SDS011;3465;42.144;24.722;2023-04-06T08:27:01;6.15;;;5.10;;
6852;SDS011;3465;42.144;24.722;2023-04-06T08:29:26;8.93;;;4.65;;
6852;SDS011;3465;42.144;24.722;2023-04-06T08:31:51;5.60;;;4.68;;
6852;SDS011;3465;42.144;24.722;2023-04-06T08:34:17;7.20;;;4.82;;
6852;SDS011;3465;42.144;24.722;2023-04-06T08:36:42;5.72;;;4.55;;
6852;SDS011;3465;42.144;24.722;2023-04-06T08:39:08;7.80;;;4.65;;
6852;SDS011;3465;42.144;24.722;2023-04-06T08:41:33;6.28;;;4.18;;
6852;SDS011;3465;42.144;24.722;2023-04-06T08:44:00;6.03;;;4.50;;
6852;SDS011;3465;42.144;24.722;2023-04-06T08:46:26;6.75;;;4.53;;
6852;SDS011;3465;42.144;24.722;2023-04-06T08:48:59;7.32;;;4.72;;
6852;SDS011;3465;42.144;24.722;2023-04-06T08:51:27;6.43;;;4.28;;
6852;SDS011;3465;42.144;24.722;2023-04-06T08:53:53;5.07;;;4.38;;
6852;SDS011;3465;42.144;24.722;2023-04-06T08:56:24;9.00;;;4.60;;
6852;SDS011;3465;42.144;24.722;2023-04-06T08:58:50;8.00;;;4.32;;
6852;SDS011;3465;42.144;24.722;2023-04-06T09:01:18;5.95;;;4.60;;
6852;SDS011;3465;42.144;24.722;2023-04-06T09:03:46;6.32;;;4.13;;
6852;SDS011;3465;42.144;24.722;2023-04-06T09:06:15;5.25;;;4.43;;
6852;SDS011;3465;42.144;24.722;2023-04-06T09:08:40;6.47;;;4.50;;
6852;SDS011;3465;42.144;24.722;2023-04-06T09:11:07;5.80;;;4.00;;
6852;SDS011;3465;42.144;24.722;2023-04-06T09:16:15;5.22;;;3.70;;
6852;SDS011;3465;42.144;24.722;2023-04-06T09:18:41;5.65;;;4.18;;
6852;SDS011;3465;42.144;24.722;2023-04-06T09:21:07;5.47;;;4.22;;
6852;SDS011;3465;42.144;24.722;2023-04-06T09:23:33;5.88;;;4.35;;
6852;SDS011;3465;42.144;24.722;2023-04-06T09:28:41;8.30;;;3.58;;
6852;SDS011;3465;42.144;24.722;2023-04-06T09:31:10;4.72;;;3.40;;
6852;SDS011;3465;42.144;24.722;2023-04-06T09:33:45;4.95;;;3.80;;
6852;SDS011;3465;42.144;24.722;2023-04-06T09:36:11;7.22;;;3.83;;
6852;SDS011;3465;42.144;24.722;2023-04-06T09:38:38;4.03;;;3.33;;
6852;SDS011;3465;42.144;24.722;2023-04-06T09:41:20;5.32;;;2.70;;
6852;SDS011;3465;42.144;24.722;2023-04-06T09:44:01;3.63;;;3.00;;
6852;SDS011;3465;42.144;24.722;2023-04-06T09:46:27;3.40;;;2.75;;
6852;SDS011;3465;42.144;24.722;2023-04-06T09:48:56;3.03;;;2.72;;
6852;SDS011;3465;42.144;24.722;2023-04-06T09:51:22;3.42;;;2.95;;
6852;SDS011;3465;42.144;24.722;2023-04-06T09:53:52;5.60;;;3.33;;
6852;SDS011;3465;42.144;24.722;2023-04-06T09:56:20;2.95;;;2.55;;
6852;SDS011;3465;42.144;24.722;2023-04-06T09:58:50;3.80;;;2.88;;
6852;SDS011;3465;42.144;24.722;2023-04-06T10:01:21;3.80;;;2.70;;
6852;SDS011;3465;42.144;24.722;2023-04-06T10:03:52;3.10;;;2.70;;
6852;SDS011;3465;42.144;24.722;2023-04-06T10:06:28;6.00;;;2.83;;
6852;SDS011;3465;42.144;24.722;2023-04-06T10:08:58;4.13;;;3.35;;
6852;SDS011;3465;42.144;24.722;2023-04-06T10:11:26;3.25;;;2.70;;
6852;SDS011;3465;42.144;24.722;2023-04-06T10:13:52;5.75;;;3.65;;
6852;SDS011;3465;42.144;24.722;2023-04-06T10:16:19;2.50;;;2.30;;
6852;SDS011;3465;42.144;24.722;2023-04-06T10:18:46;3.58;;;2.90;;
6852;SDS011;3465;42.144;24.722;2023-04-06T10:21:20;4.15;;;3.10;;
6852;SDS011;3465;42.144;24.722;2023-04-06T10:23:54;3.10;;;2.78;;
6852;SDS011;3465;42.144;24.722;2023-04-06T10:26:24;4.15;;;3.05;;
6852;SDS011;3465;42.144;24.722;2023-04-06T10:28:50;3.50;;;2.58;;
6852;SDS011;3465;42.144;24.722;2023-04-06T10:31:23;5.00;;;3.28;;
6852;SDS011;3465;42.144;24.722;2023-04-06T10:33:53;6.00;;;3.38;;
6852;SDS011;3465;42.144;24.722;2023-04-06T10:36:24;3.78;;;2.88;;
6852;SDS011;3465;42.144;24.722;2023-04-06T10:38:55;5.03;;;3.25;;
6852;SDS011;3465;42.144;24.722;2023-04-06T10:41:22;3.40;;;3.00;;
6852;SDS011;3465;42.144;24.722;2023-04-06T10:43:54;4.20;;;3.20;;
6852;SDS011;3465;42.144;24.722;2023-04-06T10:46:25;3.75;;;3.40;;
6852;SDS011;3465;42.144;24.722;2023-04-06T10:48:51;3.65;;;3.35;;
6852;SDS011;3465;42.144;24.722;2023-04-06T10:51:17;5.07;;;3.72;;
6852;SDS011;3465;42.144;24.722;2023-04-06T10:53:45;6.18;;;3.63;;
6852;SDS011;3465;42.144;24.722;2023-04-06T10:56:14;3.40;;;2.88;;
6852;SDS011;3465;42.144;24.722;2023-04-06T10:58:51;4.78;;;3.00;;
6852;SDS011;3465;42.144;24.722;2023-04-06T11:01:19;2.92;;;2.63;;
6852;SDS011;3465;42.144;24.722;2023-04-06T11:03:46;3.78;;;3.38;;
6852;SDS011;3465;42.144;24.722;2023-04-06T11:06:23;4.57;;;3.10;;
6852;SDS011;3465;42.144;24.722;2023-04-06T11:08:50;3.30;;;2.95;;
6852;SDS011;3465;42.144;24.722;2023-04-06T11:11:17;4.05;;;2.95;;
6852;SDS011;3465;42.144;24.722;2023-04-06T11:13:54;3.95;;;2.97;;
6852;SDS011;3465;42.144;24.722;2023-04-06T11:18:54;5.50;;;4.20;;
6852;SDS011;3465;42.144;24.722;2023-04-06T11:24:20;3.85;;;3.10;;
6852;SDS011;3465;42.144;24.722;2023-04-06T11:29:19;3.63;;;3.15;;
6852;SDS011;3465;42.144;24.722;2023-04-06T11:31:50;4.43;;;3.33;;
6852;SDS011;3465;42.144;24.722;2023-04-06T11:34:19;5.05;;;3.25;;
6852;SDS011;3465;42.144;24.722;2023-04-06T11:36:46;3.60;;;3.10;;
6852;SDS011;3465;42.144;24.722;2023-04-06T11:39:14;4.57;;;3.17;;
6852;SDS011;3465;42.144;24.722;2023-04-06T11:41:47;5.50;;;3.38;;
6852;SDS011;3465;42.144;24.722;2023-04-06T11:44:28;6.03;;;3.90;;
6852;SDS011;3465;42.144;24.722;2023-04-06T11:47:00;3.60;;;3.15;;
6852;SDS011;3465;42.144;24.722;2023-04-06T11:49:28;4.22;;;3.10;;
6852;SDS011;3465;42.144;24.722;2023-04-06T11:51:54;4.15;;;3.30;;
6852;SDS011;3465;42.144;24.722;2023-04-06T11:54:32;4.22;;;3.78;;
6852;SDS011;3465;42.144;24.722;2023-04-06T11:57:05;4.13;;;3.58;;
6852;SDS011;3465;42.144;24.722;2023-04-06T11:59:32;4.28;;;3.35;;
6852;SDS011;3465;42.144;24.722;2023-04-06T12:01:59;3.75;;;3.22;;
6852;SDS011;3465;42.144;24.722;2023-04-06T12:04:26;5.60;;;4.97;;
6852;SDS011;3465;42.144;24.722;2023-04-06T12:06:51;5.35;;;3.83;;
6852;SDS011;3465;42.144;24.722;2023-04-06T12:09:17;6.55;;;4.00;;
6852;SDS011;3465;42.144;24.722;2023-04-06T12:11:42;5.73;;;4.27;;
6852;SDS011;3465;42.144;24.722;2023-04-06T12:14:08;8.65;;;6.18;;
6852;SDS011;3465;42.144;24.722;2023-04-06T12:16:34;12.17;;;7.60;;
6852;SDS011;3465;42.144;24.722;2023-04-06T12:19:00;5.47;;;3.97;;
6852;SDS011;3465;42.144;24.722;2023-04-06T12:21:29;6.77;;;5.30;;
6852;SDS011;3465;42.144;24.722;2023-04-06T12:23:56;40.07;;;21.80;;
6852;SDS011;3465;42.144;24.722;2023-04-06T12:26:25;29.43;;;16.53;;
6852;SDS011;3465;42.144;24.722;2023-04-06T12:28:51;6.07;;;4.30;;
6852;SDS011;3465;42.144;24.722;2023-04-06T12:31:17;6.30;;;4.50;;
6852;SDS011;3465;42.144;24.722;2023-04-06T12:33:45;6.60;;;4.57;;
6852;SDS011;3465;42.144;24.722;2023-04-06T12:36:12;9.03;;;5.43;;
6852;SDS011;3465;42.144;24.722;2023-04-06T12:38:38;6.00;;;4.53;;
6852;SDS011;3465;42.144;24.722;2023-04-06T12:41:05;4.50;;;4.00;;
6852;SDS011;3465;42.144;24.722;2023-04-06T12:43:31;6.50;;;4.50;;
6852;SDS011;3465;42.144;24.722;2023-04-06T12:45:56;8.37;;;5.23;;
6852;SDS011;3465;42.144;24.722;2023-04-06T12:48:22;7.90;;;4.43;;
6852;SDS011;3465;42.144;24.722;2023-04-06T12:51:00;40.53;;;13.10;;
6852;SDS011;3465;42.144;24.722;2023-04-06T12:53:27;28.90;;;10.83;;
6852;SDS011;3465;42.144;24.722;2023-04-06T12:55:54;9.30;;;5.67;;
6852;SDS011;3465;42.144;24.722;2023-04-06T12:58:20;8.87;;;5.70;;
6852;SDS011;3465;42.144;24.722;2023-04-06T13:00:49;6.27;;;4.50;;
6852;SDS011;3465;42.144;24.722;2023-04-06T13:03:16;11.00;;;7.30;;
6852;SDS011;3465;42.144;24.722;2023-04-06T13:05:45;6.03;;;4.73;;
6852;SDS011;3465;42.144;24.722;2023-04-06T13:08:11;7.83;;;5.83;;
6852;SDS011;3465;42.144;24.722;2023-04-06T13:10:37;6.53;;;4.50;;
6852;SDS011;3465;42.144;24.722;2023-04-06T13:13:02;5.80;;;4.70;;
6852;SDS011;3465;42.144;24.722;2023-04-06T13:15:28;5.30;;;4.37;;
6852;SDS011;3465;42.144;24.722;2023-04-06T13:17:53;5.83;;;4.70;;
6852;SDS011;3465;42.144;24.722;2023-04-06T13:20:19;6.20;;;4.60;;
6852;SDS011;3465;42.144;24.722;2023-04-06T13:22:45;5.80;;;4.30;;
6852;SDS011;3465;42.144;24.722;2023-04-06T13:25:10;6.13;;;4.53;;
6852;SDS011;3465;42.144;24.722;2023-04-06T13:27:35;5.43;;;4.30;;
6852;SDS011;3465;42.144;24.722;2023-04-06T13:30:01;8.90;;;4.60;;
6852;SDS011;3465;42.144;24.722;2023-04-06T13:32:28;10.00;;;5.30;;
6852;SDS011;3465;42.144;24.722;2023-04-06T13:34:56;6.27;;;4.40;;
6852;SDS011;3465;42.144;24.722;2023-04-06T13:37:22;6.40;;;4.47;;
6852;SDS011;3465;42.144;24.722;2023-04-06T13:39:48;5.47;;;4.20;;
6852;SDS011;3465;42.144;24.722;2023-04-06T13:42:13;8.40;;;5.77;;
6852;SDS011;3465;42.144;24.722;2023-04-06T13:44:38;6.80;;;4.77;;
6852;SDS011;3465;42.144;24.722;2023-04-06T13:47:04;5.93;;;4.60;;
6852;SDS011;3465;42.144;24.722;2023-04-06T13:49:31;8.87;;;5.30;;
6852;SDS011;3465;42.144;24.722;2023-04-06T13:51:57;9.13;;;4.93;;
6852;SDS011;3465;42.144;24.722;2023-04-06T13:54:22;6.23;;;4.17;;
6852;SDS011;3465;42.144;24.722;2023-04-06T13:56:48;4.73;;;4.00;;
6852;SDS011;3465;42.144;24.722;2023-04-06T13:59:13;6.20;;;4.40;;
6852;SDS011;3465;42.144;24.722;2023-04-06T14:01:39;4.70;;;4.20;;
6852;SDS011;3465;42.144;24.722;2023-04-06T14:04:05;5.97;;;4.50;;
6852;SDS011;3465;42.144;24.722;2023-04-06T14:06:30;8.43;;;5.30;;
6852;SDS011;3465;42.144;24.722;2023-04-06T14:08:55;11.73;;;4.70;;
6852;SDS011;3465;42.144;24.722;2023-04-06T14:11:21;7.07;;;4.43;;
6852;SDS011;3465;42.144;24.722;2023-04-06T14:13:48;6.33;;;4.27;;
6852;SDS011;3465;42.144;24.722;2023-04-06T14:16:14;4.90;;;3.80;;
6852;SDS011;3465;42.144;24.722;2023-04-06T14:18:40;7.10;;;3.90;;
6852;SDS011;3465;42.144;24.722;2023-04-06T14:21:05;5.83;;;4.53;;
6852;SDS011;3465;42.144;24.722;2023-04-06T14:23:31;5.53;;;4.33;;
6852;SDS011;3465;42.144;24.722;2023-04-06T14:26:01;5.60;;;3.93;;
6852;SDS011;3465;42.144;24.722;2023-04-06T14:28:28;4.43;;;3.80;;
6852;SDS011;3465;42.144;24.722;2023-04-06T14:30:54;6.73;;;4.60;;
6852;SDS011;3465;42.144;24.722;2023-04-06T14:33:19;9.07;;;5.07;;
6852;SDS011;3465;42.144;24.722;2023-04-06T14:35:45;7.50;;;4.50;;
6852;SDS011;3465;42.144;24.722;2023-04-06T14:38:10;6.53;;;4.17;;
6852;SDS011;3465;42.144;24.722;2023-04-06T14:40:35;6.17;;;4.60;;
6852;SDS011;3465;42.144;24.722;2023-04-06T14:43:02;8.37;;;4.20;;
6852;SDS011;3465;42.144;24.722;2023-04-06T14:45:27;5.53;;;4.17;;
6852;SDS011;3465;42.144;24.722;2023-04-06T14:47:53;7.00;;;4.43;;
6852;SDS011;3465;42.144;24.722;2023-04-06T14:50:18;6.23;;;4.10;;
6852;SDS011;3465;42.144;24.722;2023-04-06T14:52:44;5.77;;;4.87;;
6852;SDS011;3465;42.144;24.722;2023-04-06T14:55:11;6.50;;;4.13;;
6852;SDS011;3465;42.144;24.722;2023-04-06T14:57:37;5.23;;;4.53;;
6852;SDS011;3465;42.144;24.722;2023-04-06T15:00:02;5.03;;;4.30;;
6852;SDS011;3465;42.144;24.722;2023-04-06T15:02:28;7.27;;;4.80;;
6852;SDS011;3465;42.144;24.722;2023-04-06T15:04:53;10.80;;;6.03;;